createdAt,value
2023-04-29T00:01:05.314Z,11.09
2023-04-29T00:03:34.965Z,11.08
2023-04-29T00:06:02.518Z,11.07
2023-04-29T00:08:29.451Z,11.06
2023-04-29T00:10:56.217Z,11.06
2023-04-29T00:13:22.821Z,11.05
2023-04-29T00:15:49.531Z,11.07
2023-04-29T00:18:16.141Z,11.06
2023-04-29T00:20:43.575Z,11.06
2023-04-29T00:23:10.631Z,11.05
2023-04-29T00:25:38.361Z,11.03
2023-04-29T00:28:06.036Z,11.03
2023-04-29T00:30:33.700Z,11.03
2023-04-29T00:33:00.740Z,11.02
2023-04-29T00:35:27.429Z,11.02
2023-04-29T00:37:54.421Z,11.00
2023-04-29T00:40:21.242Z,10.98
2023-04-29T00:42:47.853Z,10.98
2023-04-29T00:45:14.598Z,10.96
2023-04-29T00:47:42.125Z,10.95
2023-04-29T00:50:09.326Z,10.96
2023-04-29T00:52:38.335Z,10.95
2023-04-29T00:55:09.129Z,10.95
2023-04-29T00:57:35.951Z,10.90
2023-04-29T01:00:03.943Z,10.91
2023-04-29T01:02:30.765Z,10.94
2023-04-29T01:04:57.702Z,10.94
2023-04-29T01:07:29.339Z,10.96
2023-04-29T01:09:58.564Z,10.92
2023-04-29T01:12:35.147Z,10.92
2023-04-29T01:15:01.724Z,10.93
2023-04-29T01:17:37.541Z,10.93
2023-04-29T01:20:05.414Z,10.95
2023-04-29T01:22:32.258Z,10.94
2023-04-29T01:24:59.018Z,10.95
2023-04-29T01:27:42.496Z,10.93
2023-04-29T01:30:28.051Z,10.93
2023-04-29T01:33:28.087Z,10.95
2023-04-29T01:36:16.681Z,10.93
2023-04-29T01:39:20.734Z,10.93
2023-04-29T01:42:11.614Z,10.89
2023-04-29T01:44:39.683Z,10.98
2023-04-29T01:47:07.016Z,11.03
2023-04-29T01:49:36.398Z,11.05
2023-04-29T01:52:03.550Z,10.98
2023-04-29T01:54:30.538Z,10.97
2023-04-29T01:56:58.627Z,10.97
2023-04-29T01:59:25.275Z,10.94
2023-04-29T02:01:52.436Z,10.95
2023-04-29T02:04:19.150Z,10.94
2023-04-29T02:06:45.892Z,10.89
2023-04-29T02:09:12.580Z,10.91
2023-04-29T02:11:39.334Z,10.90
2023-04-29T02:14:06.049Z,10.85
2023-04-29T02:16:32.807Z,10.86
2023-04-29T02:18:59.711Z,10.88
2023-04-29T02:21:27.185Z,10.90
2023-04-29T02:23:54.764Z,10.96
2023-04-29T02:26:21.509Z,10.96
2023-04-29T02:28:48.569Z,10.96
2023-04-29T02:31:15.256Z,10.93
2023-04-29T02:33:41.972Z,10.90
2023-04-29T02:36:08.614Z,10.88
2023-04-29T02:38:35.274Z,10.85
2023-04-29T02:41:02.233Z,10.79
2023-04-29T02:43:31.172Z,10.78
2023-04-29T02:45:58.077Z,10.82
2023-04-29T02:48:24.834Z,10.83
2023-04-29T02:50:51.514Z,10.83
2023-04-29T02:53:18.621Z,10.83
2023-04-29T02:55:45.199Z,10.86
2023-04-29T02:58:11.821Z,10.87
2023-04-29T03:00:40.526Z,10.89
2023-04-29T03:03:07.355Z,10.91
2023-04-29T03:05:34.974Z,10.86
2023-04-29T03:08:01.985Z,10.86
2023-04-29T03:10:28.644Z,10.92
2023-04-29T03:12:55.261Z,10.91
2023-04-29T03:15:21.884Z,10.88
2023-04-29T03:17:48.564Z,10.90
2023-04-29T03:20:15.212Z,10.88
2023-04-29T03:22:41.811Z,10.89
2023-04-29T03:25:10.589Z,10.88
2023-04-29T03:27:37.387Z,10.90
2023-04-29T03:30:04.394Z,10.87
2023-04-29T03:32:31.094Z,10.85
2023-04-29T03:34:57.811Z,10.85
2023-04-29T03:37:24.426Z,10.87
2023-04-29T03:39:51.225Z,10.84
2023-04-29T03:42:18.150Z,10.84
2023-04-29T03:44:44.729Z,10.80
2023-04-29T03:47:11.432Z,10.83
2023-04-29T03:49:38.063Z,10.84
2023-04-29T03:52:05.148Z,10.75
2023-04-29T03:54:32.108Z,10.77
2023-04-29T03:56:58.681Z,10.78
2023-04-29T03:59:25.377Z,10.82
2023-04-29T04:01:54.257Z,10.85
2023-04-29T04:04:22.029Z,10.85
2023-04-29T04:06:52.035Z,10.86
2023-04-29T04:09:19.032Z,10.84
2023-04-29T04:11:45.822Z,10.75
2023-04-29T04:14:13.024Z,10.75
2023-04-29T04:16:39.766Z,10.77
2023-04-29T04:19:06.517Z,10.73
2023-04-29T04:21:33.290Z,10.74
2023-04-29T04:23:59.953Z,10.77
2023-04-29T04:26:26.544Z,10.84
2023-04-29T04:28:53.152Z,10.83
2023-04-29T04:31:19.808Z,10.77
2023-04-29T04:33:46.667Z,10.78
2023-04-29T04:36:13.299Z,10.80
2023-04-29T04:38:40.062Z,10.84
2023-04-29T04:41:08.210Z,10.87
2023-04-29T04:43:34.839Z,10.80
2023-04-29T04:46:09.707Z,10.77
2023-04-29T04:48:36.395Z,10.79
2023-04-29T04:51:10.316Z,10.85
2023-04-29T04:53:37.229Z,10.89
2023-04-29T04:56:04.680Z,10.87
2023-04-29T04:58:34.018Z,10.88
2023-04-29T05:01:01.193Z,10.88
2023-04-29T05:03:28.025Z,10.86
2023-04-29T05:05:59.678Z,10.81
2023-04-29T05:08:26.998Z,10.75
2023-04-29T05:10:54.260Z,10.72
2023-04-29T05:13:21.502Z,10.66
2023-04-29T05:15:48.205Z,10.66
2023-04-29T05:18:14.846Z,10.74
2023-04-29T05:20:41.535Z,10.81
2023-04-29T05:23:08.897Z,10.86
2023-04-29T05:25:35.594Z,10.90
2023-04-29T05:28:04.499Z,10.93
2023-04-29T05:30:31.408Z,10.87
2023-04-29T05:32:58.774Z,10.85
2023-04-29T05:35:25.572Z,10.87
2023-04-29T05:37:52.222Z,10.83
2023-04-29T05:40:18.849Z,10.82
2023-04-29T05:42:45.499Z,10.78
2023-04-29T05:45:12.629Z,10.83
2023-04-29T05:47:39.443Z,10.85
2023-04-29T05:50:06.590Z,10.84
2023-04-29T05:52:33.209Z,10.89
2023-04-29T05:54:59.894Z,10.90
2023-04-29T05:57:26.481Z,10.93
2023-04-29T05:59:55.244Z,11.00
2023-04-29T06:02:22.572Z,11.09
2023-04-29T06:04:49.786Z,11.16
2023-04-29T06:07:19.518Z,11.15
2023-04-29T06:09:46.980Z,11.21
2023-04-29T06:12:13.673Z,11.20
2023-04-29T06:14:40.465Z,11.15
2023-04-29T06:17:07.172Z,11.20
2023-04-29T06:19:34.136Z,11.21
2023-04-29T06:22:00.923Z,11.22
2023-04-29T06:24:27.591Z,11.18
2023-04-29T06:26:54.229Z,10.97
2023-04-29T06:29:20.857Z,11.06
2023-04-29T06:31:47.688Z,11.08
2023-04-29T06:34:14.363Z,11.03
2023-04-29T06:36:41.676Z,11.07
2023-04-29T06:39:08.314Z,11.05
2023-04-29T06:41:35.100Z,11.00
2023-04-29T06:44:01.734Z,10.90
2023-04-29T06:46:29.193Z,10.96
2023-04-29T06:48:55.947Z,10.96
2023-04-29T06:51:22.747Z,11.02
2023-04-29T06:53:49.414Z,11.06
2023-04-29T06:56:17.188Z,11.14
2023-04-29T06:58:43.946Z,11.17
2023-04-29T07:01:11.108Z,11.25
2023-04-29T07:03:38.465Z,11.25
2023-04-29T07:06:05.322Z,11.29
2023-04-29T07:08:32.309Z,11.33
2023-04-29T07:10:59.419Z,11.29
2023-04-29T07:13:26.253Z,11.33
2023-04-29T07:15:53.302Z,11.35
2023-04-29T07:18:19.980Z,11.42
2023-04-29T07:20:48.065Z,11.43
2023-04-29T07:23:15.118Z,11.47
2023-04-29T07:25:41.807Z,11.38
2023-04-29T07:28:09.287Z,11.41
2023-04-29T07:30:36.491Z,11.46
2023-04-29T07:33:04.557Z,11.45
2023-04-29T07:35:31.767Z,11.30
2023-04-29T07:37:58.614Z,11.20
2023-04-29T07:40:25.388Z,11.19
2023-04-29T07:42:52.058Z,11.29
2023-04-29T07:45:18.747Z,11.38
2023-04-29T07:47:45.963Z,11.45
2023-04-29T07:50:12.883Z,11.42
2023-04-29T07:52:39.615Z,11.46
2023-04-29T07:55:06.632Z,11.46
2023-04-29T07:57:33.293Z,11.30
2023-04-29T07:59:59.935Z,11.36
2023-04-29T08:02:26.743Z,11.41
2023-04-29T08:04:56.125Z,11.45
2023-04-29T08:07:23.337Z,11.36
2023-04-29T08:09:50.041Z,11.33
2023-04-29T08:12:16.719Z,11.33
2023-04-29T08:14:43.304Z,11.35
2023-04-29T08:17:10.075Z,11.35
2023-04-29T08:19:36.713Z,11.32
2023-04-29T08:22:04.341Z,11.30
2023-04-29T08:24:33.511Z,11.27
2023-04-29T08:27:00.254Z,11.37
2023-04-29T08:29:27.003Z,11.43
2023-04-29T08:31:53.847Z,11.37
2023-04-29T08:34:20.561Z,11.36
2023-04-29T08:36:47.269Z,11.26
2023-04-29T08:39:13.930Z,11.32
2023-04-29T08:41:40.706Z,11.39
2023-04-29T08:44:07.396Z,11.46
2023-04-29T08:46:34.193Z,11.47
2023-04-29T08:49:03.953Z,11.49
2023-04-29T08:51:32.321Z,11.48
2023-04-29T08:53:59.041Z,11.54
2023-04-29T08:56:28.151Z,11.66
2023-04-29T08:58:58.498Z,11.81
2023-04-29T09:01:30.544Z,11.79
2023-04-29T09:04:12.460Z,11.74
2023-04-29T09:06:39.285Z,11.79
2023-04-29T09:09:07.015Z,11.92
2023-04-29T09:11:35.840Z,11.98
2023-04-29T09:14:04.420Z,11.95
2023-04-29T09:16:31.130Z,12.00
2023-04-29T09:18:58.273Z,11.91
2023-04-29T09:21:27.294Z,12.01
2023-04-29T09:23:59.261Z,11.99
2023-04-29T09:26:27.092Z,11.98
2023-04-29T09:29:16.381Z,12.08
2023-04-29T09:31:43.175Z,12.09
2023-04-29T09:34:12.052Z,12.17
2023-04-29T09:36:45.974Z,12.30
2023-04-29T09:39:13.975Z,12.35
2023-04-29T09:42:02.728Z,12.32
2023-04-29T09:44:34.329Z,12.45
2023-04-29T09:47:09.062Z,12.42
2023-04-29T09:49:45.499Z,12.43
2023-04-29T09:52:15.170Z,12.45
2023-04-29T09:54:43.293Z,12.40
2023-04-29T09:57:11.358Z,12.55
2023-04-29T09:59:39.820Z,12.40
2023-04-29T10:02:15.736Z,12.58
2023-04-29T10:04:45.805Z,12.63
2023-04-29T10:07:19.136Z,12.73
2023-04-29T10:09:47.800Z,12.80
2023-04-29T10:12:19.973Z,12.73
2023-04-29T10:15:01.119Z,12.61
2023-04-29T10:18:00.158Z,12.52
2023-04-29T10:20:27.254Z,12.49
2023-04-29T10:22:57.089Z,12.57
2023-04-29T10:25:26.248Z,12.65
2023-04-29T10:27:53.790Z,12.69
2023-04-29T10:30:21.927Z,12.58
2023-04-29T10:32:52.060Z,12.57
2023-04-29T10:35:22.756Z,12.66
2023-04-29T10:37:49.952Z,12.57
2023-04-29T10:40:30.773Z,12.43
2023-04-29T10:42:57.677Z,12.43
2023-04-29T10:45:34.966Z,12.38
2023-04-29T10:48:10.736Z,12.31
2023-04-29T10:50:49.639Z,12.32
2023-04-29T10:53:19.498Z,12.30
2023-04-29T10:55:54.495Z,12.18
2023-04-29T10:58:43.666Z,12.21
2023-04-29T11:01:12.498Z,11.97
2023-04-29T11:04:12.677Z,11.87
2023-04-29T11:06:42.275Z,11.81
2023-04-29T11:09:09.121Z,11.81
2023-04-29T11:11:56.458Z,11.75
2023-04-29T11:14:38.151Z,11.64
2023-04-29T11:17:17.707Z,11.53
2023-04-29T11:19:51.131Z,11.54
2023-04-29T11:22:17.935Z,11.59
2023-04-29T11:24:54.057Z,11.53
2023-04-29T11:27:25.367Z,11.50
2023-04-29T11:29:58.295Z,11.45
2023-04-29T11:32:29.268Z,11.50
2023-04-29T11:35:06.971Z,11.57
2023-04-29T11:37:33.642Z,11.62
2023-04-29T11:40:03.544Z,11.65
2023-04-29T11:42:30.489Z,11.64
2023-04-29T11:44:57.999Z,11.55
2023-04-29T11:47:31.571Z,11.58
2023-04-29T11:50:10.274Z,11.49
2023-04-29T11:52:39.329Z,11.48
2023-04-29T11:55:08.720Z,11.47
2023-04-29T11:57:35.921Z,11.45
2023-04-29T12:00:05.698Z,11.53
2023-04-29T12:02:34.876Z,11.62
2023-04-29T12:05:07.886Z,11.66
2023-04-29T12:07:36.480Z,11.51
2023-04-29T12:10:03.872Z,11.56
2023-04-29T12:12:34.996Z,11.69
2023-04-29T12:15:03.357Z,11.75
2023-04-29T12:17:30.462Z,11.86
2023-04-29T12:19:57.658Z,11.94
2023-04-29T12:22:32.063Z,12.11
2023-04-29T12:24:58.811Z,12.11
2023-04-29T12:27:26.663Z,12.15
2023-04-29T12:29:53.299Z,12.12
2023-04-29T12:32:24.024Z,12.09
2023-04-29T12:34:54.010Z,12.10
2023-04-29T12:37:26.315Z,11.92
2023-04-29T12:39:55.249Z,11.90
2023-04-29T12:42:21.854Z,11.82
2023-04-29T12:44:49.055Z,11.80
2023-04-29T12:47:17.235Z,11.76
2023-04-29T12:49:46.055Z,11.80
2023-04-29T12:52:13.495Z,11.90
2023-04-29T12:54:42.689Z,12.04
2023-04-29T12:57:11.107Z,12.21
2023-04-29T12:59:38.684Z,12.27
2023-04-29T13:02:05.561Z,12.35
2023-04-29T13:04:32.586Z,12.36
2023-04-29T13:07:02.617Z,12.51
2023-04-29T13:09:30.515Z,12.65
2023-04-29T13:11:57.926Z,12.77
2023-04-29T13:14:24.607Z,12.83
2023-04-29T13:16:51.386Z,12.81
2023-04-29T13:19:38.390Z,12.90
2023-04-29T13:22:04.947Z,12.94
2023-04-29T13:24:33.119Z,12.97
2023-04-29T13:27:00.154Z,13.08
2023-04-29T13:29:26.995Z,13.13
2023-04-29T13:31:53.695Z,13.11
2023-04-29T13:34:21.369Z,13.01
2023-04-29T13:36:48.357Z,13.03
2023-04-29T13:39:15.167Z,12.97
2023-04-29T13:41:45.535Z,12.98
2023-04-29T13:44:23.886Z,12.95
2023-04-29T13:46:57.892Z,12.77
2023-04-29T13:49:53.694Z,12.69
2023-04-29T13:58:20.448Z,12.17
2023-04-29T14:00:38.165Z,12.16
2023-04-29T14:03:02.326Z,12.09
2023-04-29T14:05:29.093Z,12.13
2023-04-29T14:07:56.202Z,12.16
2023-04-29T14:10:22.889Z,12.02
2023-04-29T14:12:49.463Z,11.98
2023-04-29T14:15:16.390Z,12.00
2023-04-29T14:17:43.159Z,12.06
2023-04-29T14:20:30.259Z,11.99
2023-04-29T14:22:56.852Z,12.09
2023-04-29T14:25:23.441Z,12.11
2023-04-29T14:27:50.202Z,12.10
2023-04-29T14:30:17.282Z,12.18
2023-04-29T14:32:44.082Z,12.28
2023-04-29T14:35:11.091Z,12.31
2023-04-29T14:37:37.691Z,12.33
2023-04-29T14:40:04.758Z,12.36
2023-04-29T14:42:31.374Z,12.44
2023-04-29T14:44:59.314Z,12.53
2023-04-29T14:47:26.100Z,12.56
2023-04-29T14:49:52.769Z,12.59
2023-04-29T14:52:19.327Z,12.60
2023-04-29T14:54:45.938Z,12.54
2023-04-29T14:57:12.952Z,12.58
2023-04-29T14:59:39.587Z,12.63
2023-04-29T15:02:06.896Z,12.64
2023-04-29T15:04:34.166Z,12.72
2023-04-29T15:07:00.923Z,12.66
2023-04-29T15:09:27.669Z,12.69
2023-04-29T15:11:54.294Z,12.69
2023-04-29T15:14:20.949Z,12.68
2023-04-29T15:16:49.056Z,12.65
2023-04-29T15:19:15.925Z,12.62
2023-04-29T15:21:42.606Z,12.54
2023-04-29T15:24:09.443Z,12.43
2023-04-29T15:26:36.114Z,12.28
2023-04-29T15:29:03.502Z,12.23
2023-04-29T15:31:30.888Z,12.23
2023-04-29T15:33:57.643Z,12.24
2023-04-29T15:36:30.116Z,12.30
2023-04-29T15:38:57.139Z,12.28
2023-04-29T15:41:25.983Z,12.29
2023-04-29T15:43:53.001Z,12.27
2023-04-29T15:46:19.800Z,12.24
2023-04-29T15:48:46.862Z,12.25
2023-04-29T15:51:16.756Z,12.21
2023-04-29T15:53:44.635Z,12.15
2023-04-29T15:56:11.528Z,12.15
2023-04-29T15:58:38.203Z,12.18
2023-04-29T16:01:05.182Z,12.15
2023-04-29T16:03:31.920Z,12.19
2023-04-29T16:05:58.672Z,12.20
2023-04-29T16:08:25.371Z,12.22
2023-04-29T16:10:52.193Z,12.24
2023-04-29T16:13:18.876Z,12.20
2023-04-29T16:15:45.854Z,12.09
2023-04-29T16:18:14.036Z,12.20
2023-04-29T16:20:41.910Z,12.21
2023-04-29T16:23:08.819Z,12.24
2023-04-29T16:25:35.517Z,12.20
2023-04-29T16:28:02.376Z,12.19
2023-04-29T16:30:29.137Z,12.09
2023-04-29T16:32:55.813Z,12.08
2023-04-29T16:35:26.338Z,11.98
2023-04-29T16:37:53.623Z,11.90
2023-04-29T16:40:20.411Z,11.97
2023-04-29T16:42:47.386Z,11.91
2023-04-29T16:45:14.723Z,11.81
2023-04-29T16:47:42.105Z,11.82
2023-04-29T16:50:09.699Z,11.81
2023-04-29T16:52:36.543Z,11.77
2023-04-29T16:55:03.849Z,11.78
2023-04-29T16:57:30.725Z,11.76
2023-04-29T16:59:57.447Z,11.78
2023-04-29T17:02:24.243Z,11.84
2023-04-29T17:04:52.128Z,11.85
2023-04-29T17:07:22.097Z,11.83
2023-04-29T17:09:48.715Z,11.82
2023-04-29T17:12:15.393Z,11.82
2023-04-29T17:14:42.122Z,11.74
2023-04-29T17:17:08.850Z,11.71
2023-04-29T17:19:35.870Z,11.72
2023-04-29T17:22:02.568Z,11.67
2023-04-29T17:24:29.681Z,11.61
2023-04-29T17:26:56.369Z,11.54
2023-04-29T17:29:22.975Z,11.50
2023-04-29T17:31:54.914Z,11.48
2023-04-29T17:34:25.713Z,11.48
2023-04-29T17:36:55.473Z,11.49
2023-04-29T17:39:22.150Z,11.48
2023-04-29T17:41:48.849Z,11.47
2023-04-29T17:44:15.715Z,11.42
2023-04-29T17:46:42.942Z,11.42
2023-04-29T17:49:09.722Z,11.41
2023-04-29T17:51:36.596Z,11.39
2023-04-29T17:54:06.648Z,11.37
2023-04-29T17:56:35.025Z,11.35
2023-04-29T17:59:03.043Z,11.32
2023-04-29T18:01:29.822Z,11.36
2023-04-29T18:03:56.591Z,11.36
2023-04-29T18:06:23.517Z,11.34
2023-04-29T18:08:50.523Z,11.33
2023-04-29T18:11:17.265Z,11.35
2023-04-29T18:13:44.251Z,11.33
2023-04-29T18:16:10.977Z,11.28
2023-04-29T18:18:37.895Z,11.28
2023-04-29T18:21:05.179Z,11.22
2023-04-29T18:23:32.119Z,11.18
2023-04-29T18:25:59.256Z,11.15
2023-04-29T18:28:26.085Z,11.14
2023-04-29T18:30:52.811Z,11.14
2023-04-29T18:33:19.600Z,11.09
2023-04-29T18:35:46.415Z,11.08
2023-04-29T18:38:17.119Z,11.06
2023-04-29T18:40:44.627Z,11.07
2023-04-29T18:43:12.267Z,11.05
2023-04-29T18:45:38.963Z,11.02
2023-04-29T18:48:07.098Z,10.97
2023-04-29T18:50:34.269Z,10.92
2023-04-29T18:53:01.296Z,10.93
2023-04-29T18:55:28.221Z,10.93
2023-04-29T18:57:54.882Z,10.94
2023-04-29T19:00:24.496Z,10.93
2023-04-29T19:02:51.431Z,10.93
2023-04-29T19:05:21.512Z,10.93
2023-04-29T19:07:48.400Z,10.91
2023-04-29T19:10:15.116Z,10.91
2023-04-29T19:12:41.834Z,10.88
2023-04-29T19:15:08.755Z,10.87
2023-04-29T19:17:36.124Z,10.88
2023-04-29T19:20:03.367Z,10.86
2023-04-29T19:22:31.237Z,10.90
2023-04-29T19:24:58.150Z,10.85
2023-04-29T19:27:24.785Z,10.84
2023-04-29T19:29:52.516Z,10.84
2023-04-29T19:32:20.312Z,10.83
2023-04-29T19:34:47.179Z,10.81
2023-04-29T19:37:14.680Z,10.80
2023-04-29T19:39:41.460Z,10.78
2023-04-29T19:42:08.126Z,10.76
2023-04-29T19:44:34.748Z,10.74
2023-04-29T19:47:01.751Z,10.68
2023-04-29T19:49:28.486Z,10.66
2023-04-29T19:51:55.261Z,10.61
2023-04-29T19:54:22.069Z,10.60
2023-04-29T19:56:48.677Z,10.55
2023-04-29T19:59:15.390Z,10.54
2023-04-29T20:01:42.576Z,10.55
2023-04-29T20:04:10.645Z,10.55
2023-04-29T20:06:39.162Z,10.52
2023-04-29T20:09:06.044Z,10.53
2023-04-29T20:11:32.664Z,10.52
2023-04-29T20:13:59.381Z,10.51
2023-04-29T20:16:27.835Z,10.50
2023-04-29T20:18:54.643Z,10.48
2023-04-29T20:21:21.289Z,10.47
2023-04-29T20:23:49.089Z,10.42
2023-04-29T20:26:17.330Z,10.39
2023-04-29T20:28:45.036Z,10.38
2023-04-29T20:31:11.882Z,10.37
2023-04-29T20:33:38.611Z,10.35
2023-04-29T20:36:06.846Z,10.34
2023-04-29T20:38:35.288Z,10.31
2023-04-29T20:41:03.032Z,10.32
2023-04-29T20:43:29.834Z,10.28
2023-04-29T20:45:58.406Z,10.25
2023-04-29T20:48:25.027Z,10.21
2023-04-29T20:50:51.756Z,10.19
2023-04-29T20:53:18.608Z,10.15
2023-04-29T20:55:46.221Z,10.12
2023-04-29T20:58:12.943Z,10.12
2023-04-29T21:00:40.706Z,10.09
2023-04-29T21:03:07.746Z,10.09
2023-04-29T21:05:34.484Z,10.10
2023-04-29T21:08:01.111Z,10.07
2023-04-29T21:10:27.752Z,10.03
2023-04-29T21:12:54.362Z,9.99
2023-04-29T21:15:21.024Z,9.93
2023-04-29T21:17:47.692Z,9.91
2023-04-29T21:20:14.332Z,9.93
2023-04-29T21:22:40.913Z,9.92
2023-04-29T21:25:08.161Z,9.90
2023-04-29T21:27:36.069Z,9.83
2023-04-29T21:30:04.866Z,9.77
2023-04-29T21:32:33.587Z,9.69
2023-04-29T21:35:00.644Z,9.65
2023-04-29T21:37:27.244Z,9.60
2023-04-29T21:39:57.378Z,9.55
2023-04-29T21:42:26.319Z,9.51
2023-04-29T21:44:59.038Z,9.44
2023-04-29T21:47:27.025Z,9.38
2023-04-29T21:49:54.202Z,9.34
2023-04-29T21:52:21.005Z,9.22
2023-04-29T21:54:47.595Z,9.19
2023-04-29T21:57:14.264Z,9.09
2023-04-29T21:59:40.882Z,9.04
2023-04-29T22:02:22.179Z,9.00
2023-04-29T22:04:50.657Z,8.93
2023-04-29T22:07:18.546Z,8.83
2023-04-29T22:09:49.859Z,8.74
2023-04-29T22:12:20.418Z,8.70
2023-04-29T22:14:47.026Z,8.71
2023-04-29T22:17:14.127Z,8.63
2023-04-29T22:19:41.091Z,8.57
2023-04-29T22:22:07.822Z,8.47
2023-04-29T22:24:34.466Z,8.38
2023-04-29T22:27:01.765Z,8.23
2023-04-29T22:29:28.466Z,8.26
2023-04-29T22:31:55.160Z,8.17
2023-04-29T22:34:21.851Z,8.10
2023-04-29T22:36:48.454Z,7.97
2023-04-29T22:39:15.038Z,7.92
2023-04-29T22:41:41.661Z,7.85
2023-04-29T22:44:08.308Z,7.75
2023-04-29T22:46:35.066Z,7.68
2023-04-29T22:49:01.813Z,7.61
2023-04-29T22:51:28.428Z,7.60
2023-04-29T22:53:55.055Z,7.54
2023-04-29T22:56:21.863Z,7.43
2023-04-29T22:58:48.554Z,7.31
2023-04-29T23:01:15.610Z,7.25
2023-04-29T23:03:42.224Z,7.20
2023-04-29T23:06:08.954Z,7.18
2023-04-29T23:08:35.548Z,7.15
2023-04-29T23:11:02.267Z,7.15
2023-04-29T23:13:28.922Z,7.08
2023-04-29T23:15:57.312Z,7.08
2023-04-29T23:18:24.085Z,7.01
2023-04-29T23:20:51.624Z,6.93
2023-04-29T23:23:18.286Z,6.88
2023-04-29T23:25:45.689Z,6.85
2023-04-29T23:28:12.327Z,6.85
2023-04-29T23:30:38.934Z,6.81
2023-04-29T23:33:05.680Z,6.83
2023-04-29T23:35:32.615Z,6.82
2023-04-29T23:37:59.297Z,6.68
2023-04-29T23:40:26.109Z,6.59
2023-04-29T23:42:52.829Z,6.56
2023-04-29T23:45:19.555Z,6.50
2023-04-29T23:47:46.274Z,6.45
2023-04-29T23:50:12.925Z,6.39
2023-04-29T23:52:39.582Z,6.33
2023-04-29T23:55:06.895Z,6.33
2023-04-29T23:57:33.597Z,6.31
